sensor_id;sensor_type;location;lat;lon;timestamp;pressure;altitude;pressure_sealevel;temperature;humidity
34081;BME280;20358;50.272;19.026;2022-08-25T00:02:40;98586.34;;;19.67;83.51
34081;BME280;20358;50.272;19.026;2022-08-25T00:05:58;98581.13;;;19.66;83.47
34081;BME280;20358;50.272;19.026;2022-08-25T00:09:10;98578.59;;;19.64;84.05
34081;BME280;20358;50.272;19.026;2022-08-25T00:12:17;98574.97;;;19.65;83.93
34081;BME280;20358;50.272;19.026;2022-08-25T00:15:24;98573.03;;;19.67;83.86
34081;BME280;20358;50.272;19.026;2022-08-25T00:18:31;98574.97;;;19.65;83.80
34081;BME280;20358;50.272;19.026;2022-08-25T00:21:39;98564.59;;;19.62;84.11
34081;BME280;20358;50.272;19.026;2022-08-25T00:24:48;98568.25;;;19.61;84.27
34081;BME280;20358;50.272;19.026;2022-08-25T00:27:54;98566.56;;;19.60;84.46
34081;BME280;20358;50.272;19.026;2022-08-25T00:31:03;98562.78;;;19.62;84.63
34081;BME280;20358;50.272;19.026;2022-08-25T00:34:11;98563.50;;;19.64;84.46
34081;BME280;20358;50.272;19.026;2022-08-25T00:37:19;98562.41;;;19.67;84.59
34081;BME280;20358;50.272;19.026;2022-08-25T00:40:28;98556.81;;;19.70;84.52
34081;BME280;20358;50.272;19.026;2022-08-25T00:43:44;98561.59;;;19.76;84.59
34081;BME280;20358;50.272;19.026;2022-08-25T00:46:52;98556.28;;;19.76;84.39
34081;BME280;20358;50.272;19.026;2022-08-25T00:50:00;98555.13;;;19.69;84.57
34081;BME280;20358;50.272;19.026;2022-08-25T00:53:10;98558.53;;;19.71;84.77
34081;BME280;20358;50.272;19.026;2022-08-25T00:56:20;98559.06;;;19.75;84.89
34081;BME280;20358;50.272;19.026;2022-08-25T00:59:27;98550.97;;;19.76;84.72
34081;BME280;20358;50.272;19.026;2022-08-25T01:02:34;98557.69;;;19.80;84.59
34081;BME280;20358;50.272;19.026;2022-08-25T01:05:42;98557.41;;;19.83;84.48
34081;BME280;20358;50.272;19.026;2022-08-25T01:08:49;98552.94;;;19.84;84.43
34081;BME280;20358;50.272;19.026;2022-08-25T01:11:59;98558.13;;;19.85;84.40
34081;BME280;20358;50.272;19.026;2022-08-25T01:15:09;98558.38;;;19.82;84.26
34081;BME280;20358;50.272;19.026;2022-08-25T01:18:16;98556.84;;;19.80;84.31
34081;BME280;20358;50.272;19.026;2022-08-25T01:21:27;98561.59;;;19.76;84.18
34081;BME280;20358;50.272;19.026;2022-08-25T01:24:38;98553.31;;;19.70;84.75
34081;BME280;20358;50.272;19.026;2022-08-25T01:27:46;98555.44;;;19.66;84.77
34081;BME280;20358;50.272;19.026;2022-08-25T01:30:52;98545.28;;;19.60;84.80
34081;BME280;20358;50.272;19.026;2022-08-25T01:33:59;98551.03;;;19.55;85.00
34081;BME280;20358;50.272;19.026;2022-08-25T01:37:09;98541.78;;;19.50;85.00
34081;BME280;20358;50.272;19.026;2022-08-25T01:40:18;98544.69;;;19.47;85.49
34081;BME280;20358;50.272;19.026;2022-08-25T01:43:30;98544.69;;;19.47;85.62
34081;BME280;20358;50.272;19.026;2022-08-25T01:46:37;98542.63;;;19.50;85.74
34081;BME280;20358;50.272;19.026;2022-08-25T01:49:43;98537.41;;;19.49;85.63
34081;BME280;20358;50.272;19.026;2022-08-25T01:52:58;98537.16;;;19.52;85.62
34081;BME280;20358;50.272;19.026;2022-08-25T01:56:08;98527.66;;;19.59;85.51
34081;BME280;20358;50.272;19.026;2022-08-25T01:59:16;98532.97;;;19.59;85.01
34081;BME280;20358;50.272;19.026;2022-08-25T02:02:26;98532.00;;;19.60;84.80
34081;BME280;20358;50.272;19.026;2022-08-25T02:05:35;98529.06;;;19.63;84.94
34081;BME280;20358;50.272;19.026;2022-08-25T02:08:44;98527.66;;;19.59;84.83
34081;BME280;20358;50.272;19.026;2022-08-25T02:11:52;98523.59;;;19.55;85.02
34081;BME280;20358;50.272;19.026;2022-08-25T02:14:58;98525.41;;;19.54;85.09
34081;BME280;20358;50.272;19.026;2022-08-25T02:18:05;98529.88;;;19.54;85.04
34081;BME280;20358;50.272;19.026;2022-08-25T02:21:12;98528.16;;;19.43;85.43
34081;BME280;20358;50.272;19.026;2022-08-25T02:24:22;98533.19;;;19.37;85.96
34081;BME280;20358;50.272;19.026;2022-08-25T02:27:29;98525.34;;;19.35;86.03
34081;BME280;20358;50.272;19.026;2022-08-25T02:30:37;98523.97;;;19.41;86.10
34081;BME280;20358;50.272;19.026;2022-08-25T02:33:44;98524.22;;;19.38;86.04
34081;BME280;20358;50.272;19.026;2022-08-25T02:36:51;98520.88;;;19.36;86.16
34081;BME280;20358;50.272;19.026;2022-08-25T02:40:02;98520.34;;;19.42;86.28
34081;BME280;20358;50.272;19.026;2022-08-25T02:43:09;98523.69;;;19.44;86.15
34081;BME280;20358;50.272;19.026;2022-08-25T02:46:18;98520.06;;;19.45;86.01
34081;BME280;20358;50.272;19.026;2022-08-25T02:49:24;98526.25;;;19.45;85.42
34081;BME280;20358;50.272;19.026;2022-08-25T02:52:31;98522.28;;;19.40;85.61
34081;BME280;20358;50.272;19.026;2022-08-25T02:55:40;98517.94;;;19.39;85.70
34081;BME280;20358;50.272;19.026;2022-08-25T02:58:47;98514.44;;;19.38;85.94
34081;BME280;20358;50.272;19.026;2022-08-25T03:01:53;98509.44;;;19.45;85.75
34081;BME280;20358;50.272;19.026;2022-08-25T03:04:59;98512.22;;;19.43;85.36
34081;BME280;20358;50.272;19.026;2022-08-25T03:08:07;98512.38;;;19.42;85.70
34081;BME280;20358;50.272;19.026;2022-08-25T03:11:17;98509.56;;;19.43;85.80
34081;BME280;20358;50.272;19.026;2022-08-25T03:14:23;98497.00;;;19.45;85.90
34081;BME280;20358;50.272;19.026;2022-08-25T03:17:30;98499.94;;;19.42;85.74
34081;BME280;20358;50.272;19.026;2022-08-25T03:20:38;98499.06;;;19.42;85.27
34081;BME280;20358;50.272;19.026;2022-08-25T03:23:45;98495.00;;;19.38;85.81
34081;BME280;20358;50.272;19.026;2022-08-25T03:26:54;98496.41;;;19.42;85.99
34081;BME280;20358;50.272;19.026;2022-08-25T03:29:58;98495.16;;;19.46;86.13
34081;BME280;20358;50.272;19.026;2022-08-25T03:33:05;98494.03;;;19.48;85.79
34081;BME280;20358;50.272;19.026;2022-08-25T03:36:12;98497.97;;;19.54;85.71
34081;BME280;20358;50.272;19.026;2022-08-25T03:39:20;98497.44;;;19.60;85.58
34081;BME280;20358;50.272;19.026;2022-08-25T03:42:31;98497.44;;;19.60;84.98
34081;BME280;20358;50.272;19.026;2022-08-25T03:45:38;98496.59;;;19.50;84.92
34081;BME280;20358;50.272;19.026;2022-08-25T03:48:45;98497.97;;;19.44;85.37
34081;BME280;20358;50.272;19.026;2022-08-25T03:51:52;98497.25;;;19.42;85.49
34081;BME280;20358;50.272;19.026;2022-08-25T03:55:02;98501.75;;;19.42;85.72
34081;BME280;20358;50.272;19.026;2022-08-25T03:58:11;98512.81;;;19.47;85.56
34081;BME280;20358;50.272;19.026;2022-08-25T04:01:18;98506.91;;;19.43;85.05
34081;BME280;20358;50.272;19.026;2022-08-25T04:04:24;98499.94;;;19.42;85.74
34081;BME280;20358;50.272;19.026;2022-08-25T04:07:31;98510.25;;;19.36;85.82
34081;BME280;20358;50.272;19.026;2022-08-25T04:10:37;98506.03;;;19.33;86.32
34081;BME280;20358;50.272;19.026;2022-08-25T04:13:47;98509.38;;;19.35;86.61
34081;BME280;20358;50.272;19.026;2022-08-25T04:16:53;98501.41;;;19.35;86.40
34081;BME280;20358;50.272;19.026;2022-08-25T04:20:00;98498.75;;;19.35;86.46
34081;BME280;20358;50.272;19.026;2022-08-25T04:23:09;98501.56;;;19.34;86.58
34081;BME280;20358;50.272;19.026;2022-08-25T04:26:23;98497.66;;;19.38;86.63
34081;BME280;20358;50.272;19.026;2022-08-25T04:29:32;98498.81;;;19.45;86.77
34081;BME280;20358;50.272;19.026;2022-08-25T04:32:39;98500.09;;;19.50;86.79
34081;BME280;20358;50.272;19.026;2022-08-25T04:35:47;98502.75;;;19.60;86.82
34081;BME280;20358;50.272;19.026;2022-08-25T04:38:54;98513.31;;;19.71;86.50
34081;BME280;20358;50.272;19.026;2022-08-25T04:42:00;98503.66;;;19.80;85.96
34081;BME280;20358;50.272;19.026;2022-08-25T04:45:11;98510.13;;;19.87;85.62
34081;BME280;20358;50.272;19.026;2022-08-25T04:48:17;98505.94;;;19.94;85.84
34081;BME280;20358;50.272;19.026;2022-08-25T04:51:26;98497.53;;;19.98;85.24
34081;BME280;20358;50.272;19.026;2022-08-25T04:54:32;98497.25;;;20.01;85.19
34081;BME280;20358;50.272;19.026;2022-08-25T04:57:39;98500.06;;;20.09;84.87
34081;BME280;20358;50.272;19.026;2022-08-25T05:00:48;98495.56;;;20.19;85.12
34081;BME280;20358;50.272;19.026;2022-08-25T05:03:57;98496.97;;;20.23;84.45
34081;BME280;20358;50.272;19.026;2022-08-25T05:07:05;98499.06;;;20.30;84.59
34081;BME280;20358;50.272;19.026;2022-08-25T05:10:12;98499.91;;;20.30;84.58
34081;BME280;20358;50.272;19.026;2022-08-25T05:13:19;98503.69;;;20.37;84.18
34081;BME280;20358;50.272;19.026;2022-08-25T05:16:29;98513.38;;;20.48;84.55
34081;BME280;20358;50.272;19.026;2022-08-25T05:19:36;98508.19;;;20.56;83.54
34081;BME280;20358;50.272;19.026;2022-08-25T05:22:43;98498.78;;;20.61;83.00
34081;BME280;20358;50.272;19.026;2022-08-25T05:25:51;98501.97;;;20.65;83.48
34081;BME280;20358;50.272;19.026;2022-08-25T05:29:03;98498.34;;;20.66;82.96
34081;BME280;20358;50.272;19.026;2022-08-25T05:32:12;98498.88;;;20.79;83.36
34081;BME280;20358;50.272;19.026;2022-08-25T05:35:20;98510.91;;;20.93;82.53
34081;BME280;20358;50.272;19.026;2022-08-25T05:38:26;98500.50;;;20.99;81.93
34081;BME280;20358;50.272;19.026;2022-08-25T05:41:34;98495.28;;;21.07;81.49
34081;BME280;20358;50.272;19.026;2022-08-25T05:44:40;98503.25;;;21.07;82.26
34081;BME280;20358;50.272;19.026;2022-08-25T05:47:49;98499.88;;;21.15;81.71
34081;BME280;20358;50.272;19.026;2022-08-25T05:50:57;98495.63;;;21.31;81.91
34081;BME280;20358;50.272;19.026;2022-08-25T05:54:05;98496.34;;;21.51;81.30
34081;BME280;20358;50.272;19.026;2022-08-25T05:57:11;98502.25;;;21.55;80.38
34081;BME280;20358;50.272;19.026;2022-08-25T06:00:18;98492.25;;;21.57;80.39
34081;BME280;20358;50.272;19.026;2022-08-25T06:03:27;98499.06;;;21.69;79.64
34081;BME280;20358;50.272;19.026;2022-08-25T06:06:32;98503.88;;;21.83;79.65
34081;BME280;20358;50.272;19.026;2022-08-25T06:09:38;98505.72;;;21.82;79.81
34081;BME280;20358;50.272;19.026;2022-08-25T06:12:48;98502.91;;;21.84;79.64
34081;BME280;20358;50.272;19.026;2022-08-25T06:16:04;98510.44;;;21.88;79.43
34081;BME280;20358;50.272;19.026;2022-08-25T06:19:14;98499.03;;;21.96;80.01
34081;BME280;20358;50.272;19.026;2022-08-25T06:22:20;98489.81;;;22.08;79.69
34081;BME280;20358;50.272;19.026;2022-08-25T06:25:28;98481.13;;;22.24;79.02
34081;BME280;20358;50.272;19.026;2022-08-25T06:28:35;98498.81;;;22.42;78.53
34081;BME280;20358;50.272;19.026;2022-08-25T06:31:43;98490.84;;;22.50;77.92
34081;BME280;20358;50.272;19.026;2022-08-25T06:34:54;98498.41;;;22.55;77.96
34081;BME280;20358;50.272;19.026;2022-08-25T06:38:02;98492.97;;;22.64;77.50
34081;BME280;20358;50.272;19.026;2022-08-25T06:41:08;98488.41;;;22.75;77.29
34081;BME280;20358;50.272;19.026;2022-08-25T06:44:16;98496.25;;;22.76;76.26
34081;BME280;20358;50.272;19.026;2022-08-25T06:47:22;98494.16;;;22.88;77.12
34081;BME280;20358;50.272;19.026;2022-08-25T06:50:32;98495.56;;;23.00;76.46
34081;BME280;20358;50.272;19.026;2022-08-25T06:53:38;98488.78;;;23.13;75.64
34081;BME280;20358;50.272;19.026;2022-08-25T06:56:45;98489.69;;;23.30;75.35
34081;BME280;20358;50.272;19.026;2022-08-25T06:59:52;98485.41;;;23.37;74.63
34081;BME280;20358;50.272;19.026;2022-08-25T07:03:00;98490.75;;;23.37;74.64
34081;BME280;20358;50.272;19.026;2022-08-25T07:06:11;98487.28;;;23.45;74.50
34081;BME280;20358;50.272;19.026;2022-08-25T07:09:20;98487.31;;;23.53;74.42
34081;BME280;20358;50.272;19.026;2022-08-25T07:12:26;98493.53;;;23.61;73.20
34081;BME280;20358;50.272;19.026;2022-08-25T07:15:37;98489.84;;;23.62;73.00
34081;BME280;20358;50.272;19.026;2022-08-25T07:18:44;98495.22;;;23.62;72.89
34081;BME280;20358;50.272;19.026;2022-08-25T07:21:54;98492.25;;;23.73;73.51
34081;BME280;20358;50.272;19.026;2022-08-25T07:25:00;98489.22;;;23.84;73.20
34081;BME280;20358;50.272;19.026;2022-08-25T07:28:08;98487.09;;;23.96;72.70
34081;BME280;20358;50.272;19.026;2022-08-25T07:31:14;98475.94;;;24.09;71.86
34081;BME280;20358;50.272;19.026;2022-08-25T07:34:21;98481.94;;;24.11;72.12
34081;BME280;20358;50.272;19.026;2022-08-25T07:38:01;98487.31;;;24.19;72.06
34081;BME280;20358;50.272;19.026;2022-08-25T07:41:12;98495.69;;;24.24;71.02
34081;BME280;20358;50.272;19.026;2022-08-25T07:44:19;98485.97;;;24.31;71.52
34081;BME280;20358;50.272;19.026;2022-08-25T07:47:30;98488.31;;;24.42;71.01
34081;BME280;20358;50.272;19.026;2022-08-25T07:50:40;98491.19;;;24.48;70.61
34081;BME280;20358;50.272;19.026;2022-08-25T07:53:50;98492.69;;;24.51;70.87
34081;BME280;20358;50.272;19.026;2022-08-25T07:56:57;98485.66;;;24.50;70.65
34081;BME280;20358;50.272;19.026;2022-08-25T08:00:07;98493.34;;;24.45;70.23
34081;BME280;20358;50.272;19.026;2022-08-25T08:03:13;98489.69;;;24.38;70.39
34081;BME280;20358;50.272;19.026;2022-08-25T08:06:40;98482.81;;;24.35;70.46
34081;BME280;20358;50.272;19.026;2022-08-25T08:09:50;98488.97;;;24.36;70.44
34081;BME280;20358;50.272;19.026;2022-08-25T08:13:18;98485.66;;;24.42;70.65
34081;BME280;20358;50.272;19.026;2022-08-25T08:16:28;98487.81;;;24.55;70.57
34081;BME280;20358;50.272;19.026;2022-08-25T08:19:36;98472.75;;;24.62;70.21
34081;BME280;20358;50.272;19.026;2022-08-25T08:22:46;98479.63;;;24.64;69.83
34081;BME280;20358;50.272;19.026;2022-08-25T08:25:56;98476.09;;;24.64;70.08
34081;BME280;20358;50.272;19.026;2022-08-25T08:29:03;98474.91;;;24.66;69.59
34081;BME280;20358;50.272;19.026;2022-08-25T08:32:12;98476.59;;;24.75;69.91
34081;BME280;20358;50.272;19.026;2022-08-25T08:35:20;98478.09;;;24.78;69.36
34081;BME280;20358;50.272;19.026;2022-08-25T08:38:27;98476.09;;;24.80;68.86
34081;BME280;20358;50.272;19.026;2022-08-25T08:41:45;98479.44;;;24.82;69.19
34081;BME280;20358;50.272;19.026;2022-08-25T08:45:29;98480.97;;;24.76;69.08
34081;BME280;20358;50.272;19.026;2022-08-25T08:48:57;98482.78;;;24.68;69.36
34081;BME280;20358;50.272;19.026;2022-08-25T08:52:07;98474.91;;;24.66;69.17
34081;BME280;20358;50.272;19.026;2022-08-25T08:55:22;98474.25;;;24.72;69.17
34081;BME280;20358;50.272;19.026;2022-08-25T08:58:39;98475.59;;;24.76;67.91
34081;BME280;20358;50.272;19.026;2022-08-25T09:01:53;98478.94;;;24.78;68.42
34081;BME280;20358;50.272;19.026;2022-08-25T09:05:08;98477.63;;;24.74;67.61
34081;BME280;20358;50.272;19.026;2022-08-25T09:08:16;98481.47;;;24.80;68.06
34081;BME280;20358;50.272;19.026;2022-08-25T09:11:30;98478.94;;;24.86;68.08
34081;BME280;20358;50.272;19.026;2022-08-25T09:14:54;98479.03;;;25.01;68.32
34081;BME280;20358;50.272;19.026;2022-08-25T09:18:22;98486.59;;;25.05;67.83
34081;BME280;20358;50.272;19.026;2022-08-25T09:21:36;98486.72;;;25.12;67.96
34081;BME280;20358;50.272;19.026;2022-08-25T09:24:54;98472.47;;;25.20;67.69
34081;BME280;20358;50.272;19.026;2022-08-25T09:28:06;98468.44;;;25.24;67.60
34081;BME280;20358;50.272;19.026;2022-08-25T09:31:20;98467.38;;;25.33;67.34
34081;BME280;20358;50.272;19.026;2022-08-25T09:34:32;98461.81;;;25.42;67.27
34081;BME280;20358;50.272;19.026;2022-08-25T09:37:40;98474.41;;;25.50;67.28
34081;BME280;20358;50.272;19.026;2022-08-25T09:40:48;98461.09;;;25.56;66.66
34081;BME280;20358;50.272;19.026;2022-08-25T09:43:58;98459.38;;;25.63;66.23
34081;BME280;20358;50.272;19.026;2022-08-25T09:47:18;98464.53;;;25.73;66.16
34081;BME280;20358;50.272;19.026;2022-08-25T09:50:31;98459.97;;;25.74;65.24
34081;BME280;20358;50.272;19.026;2022-08-25T09:53:50;98462.50;;;25.75;65.41
34081;BME280;20358;50.272;19.026;2022-08-25T09:56:58;98458.13;;;25.74;65.18
34081;BME280;20358;50.272;19.026;2022-08-25T10:00:16;98457.13;;;25.75;65.26
34081;BME280;20358;50.272;19.026;2022-08-25T10:03:29;98447.25;;;25.76;65.18
34081;BME280;20358;50.272;19.026;2022-08-25T10:06:43;98440.44;;;25.88;64.71
34081;BME280;20358;50.272;19.026;2022-08-25T10:09:52;98443.56;;;25.99;63.88
34081;BME280;20358;50.272;19.026;2022-08-25T10:13:00;98435.84;;;25.96;64.22
34081;BME280;20358;50.272;19.026;2022-08-25T10:16:12;98440.53;;;26.02;63.90
34081;BME280;20358;50.272;19.026;2022-08-25T10:19:34;98436.84;;;26.03;64.10
34081;BME280;20358;50.272;19.026;2022-08-25T10:22:42;98430.75;;;26.09;63.78
34081;BME280;20358;50.272;19.026;2022-08-25T10:25:52;98429.50;;;26.20;63.72
34081;BME280;20358;50.272;19.026;2022-08-25T10:29:18;98428.31;;;26.22;63.72
34081;BME280;20358;50.272;19.026;2022-08-25T10:32:37;98431.28;;;26.27;63.47
34081;BME280;20358;50.272;19.026;2022-08-25T10:35:56;98419.44;;;26.37;63.33
34081;BME280;20358;50.272;19.026;2022-08-25T10:39:05;98420.75;;;26.41;63.40
34081;BME280;20358;50.272;19.026;2022-08-25T10:42:41;98414.63;;;26.47;63.69
34081;BME280;20358;50.272;19.026;2022-08-25T10:46:01;98419.50;;;26.66;63.09
34081;BME280;20358;50.272;19.026;2022-08-25T10:49:18;98413.38;;;26.72;62.28
34081;BME280;20358;50.272;19.026;2022-08-25T10:52:31;98412.66;;;26.78;61.54
34081;BME280;20358;50.272;19.026;2022-08-25T10:55:48;98407.28;;;26.78;61.83
34081;BME280;20358;50.272;19.026;2022-08-25T10:59:29;98406.63;;;26.90;61.49
34081;BME280;20358;50.272;19.026;2022-08-25T11:06:17;98396.41;;;27.01;61.51
34081;BME280;20358;50.272;19.026;2022-08-25T11:09:33;98392.81;;;27.08;61.12
34081;BME280;20358;50.272;19.026;2022-08-25T11:12:43;98390.41;;;27.13;61.00
34081;BME280;20358;50.272;19.026;2022-08-25T11:15:55;98392.63;;;27.24;60.76
34081;BME280;20358;50.272;19.026;2022-08-25T11:19:21;98384.81;;;27.29;60.00
34081;BME280;20358;50.272;19.026;2022-08-25T11:22:34;98381.84;;;27.24;60.24
34081;BME280;20358;50.272;19.026;2022-08-25T11:25:48;98380.47;;;27.28;59.33
34081;BME280;20358;50.272;19.026;2022-08-25T11:29:01;98377.00;;;27.34;59.58
34081;BME280;20358;50.272;19.026;2022-08-25T11:32:13;98374.72;;;27.52;59.74
34081;BME280;20358;50.272;19.026;2022-08-25T11:35:28;98366.03;;;27.72;59.28
34081;BME280;20358;50.272;19.026;2022-08-25T11:38:44;98357.19;;;27.78;59.29
34081;BME280;20358;50.272;19.026;2022-08-25T11:42:08;98351.97;;;27.91;57.52
34081;BME280;20358;50.272;19.026;2022-08-25T11:45:33;98349.91;;;27.93;57.04
34081;BME280;20358;50.272;19.026;2022-08-25T11:48:58;98347.72;;;28.03;56.68
34081;BME280;20358;50.272;19.026;2022-08-25T11:52:40;98353.06;;;28.24;55.87
34081;BME280;20358;50.272;19.026;2022-08-25T11:55:50;98346.88;;;28.30;55.21
34081;BME280;20358;50.272;19.026;2022-08-25T11:59:00;98345.22;;;28.29;54.27
34081;BME280;20358;50.272;19.026;2022-08-25T12:02:29;98348.38;;;28.33;52.55
34081;BME280;20358;50.272;19.026;2022-08-25T12:06:15;98337.78;;;28.31;51.61
34081;BME280;20358;50.272;19.026;2022-08-25T12:09:23;98340.84;;;28.28;52.56
34081;BME280;20358;50.272;19.026;2022-08-25T12:12:36;98331.94;;;28.28;52.21
34081;BME280;20358;50.272;19.026;2022-08-25T12:15:58;98335.69;;;28.27;53.37
34081;BME280;20358;50.272;19.026;2022-08-25T12:19:29;98322.91;;;28.35;52.46
34081;BME280;20358;50.272;19.026;2022-08-25T12:22:57;98324.19;;;28.39;52.36
34081;BME280;20358;50.272;19.026;2022-08-25T12:26:09;98328.78;;;28.45;53.01
34081;BME280;20358;50.272;19.026;2022-08-25T12:29:26;98330.06;;;28.49;51.82
34081;BME280;20358;50.272;19.026;2022-08-25T12:32:52;98330.28;;;28.54;51.43
34081;BME280;20358;50.272;19.026;2022-08-25T12:36:04;98328.88;;;28.58;51.43
34081;BME280;20358;50.272;19.026;2022-08-25T12:39:17;98322.03;;;28.56;52.03
34081;BME280;20358;50.272;19.026;2022-08-25T12:42:31;98326.81;;;28.60;51.36
34081;BME280;20358;50.272;19.026;2022-08-25T12:45:43;98324.38;;;28.72;51.74
34081;BME280;20358;50.272;19.026;2022-08-25T12:48:59;98338.53;;;28.81;50.98
34081;BME280;20358;50.272;19.026;2022-08-25T12:52:09;98328.13;;;28.78;50.50
34081;BME280;20358;50.272;19.026;2022-08-25T12:55:19;98315.84;;;28.68;50.67
34081;BME280;20358;50.272;19.026;2022-08-25T12:58:33;98315.03;;;28.68;50.71
34081;BME280;20358;50.272;19.026;2022-08-25T13:02:23;98312.78;;;28.78;50.89
34081;BME280;20358;50.272;19.026;2022-08-25T13:06:05;98312.81;;;28.85;50.74
34081;BME280;20358;50.272;19.026;2022-08-25T13:09:49;98309.09;;;28.86;51.09
34081;BME280;20358;50.272;19.026;2022-08-25T13:13:05;98314.47;;;28.86;49.19
34081;BME280;20358;50.272;19.026;2022-08-25T13:16:20;98323.59;;;28.85;48.90
34081;BME280;20358;50.272;19.026;2022-08-25T13:19:31;98314.03;;;28.76;49.46
34081;BME280;20358;50.272;19.026;2022-08-25T13:22:43;98317.34;;;28.78;49.08
34081;BME280;20358;50.272;19.026;2022-08-25T13:25:51;98309.47;;;28.83;48.78
34081;BME280;20358;50.272;19.026;2022-08-25T13:29:12;98306.63;;;28.91;47.97
34081;BME280;20358;50.272;19.026;2022-08-25T13:32:25;98296.94;;;28.96;48.39
34081;BME280;20358;50.272;19.026;2022-08-25T13:35:36;98291.34;;;29.04;48.23
34081;BME280;20358;50.272;19.026;2022-08-25T13:38:52;98286.41;;;29.14;47.47
34081;BME280;20358;50.272;19.026;2022-08-25T13:42:01;98295.16;;;29.23;46.99
34081;BME280;20358;50.272;19.026;2022-08-25T13:45:12;98303.88;;;29.25;46.40
34081;BME280;20358;50.272;19.026;2022-08-25T13:48:31;98299.72;;;29.29;45.53
34081;BME280;20358;50.272;19.026;2022-08-25T13:51:48;98295.16;;;29.29;45.34
34081;BME280;20358;50.272;19.026;2022-08-25T13:55:00;98296.84;;;29.30;45.57
34081;BME280;20358;50.272;19.026;2022-08-25T13:58:14;98288.53;;;29.39;45.02
34081;BME280;20358;50.272;19.026;2022-08-25T14:01:28;98290.22;;;29.46;44.99
34081;BME280;20358;50.272;19.026;2022-08-25T14:04:51;98285.69;;;29.53;45.52
34081;BME280;20358;50.272;19.026;2022-08-25T14:07:57;98287.75;;;29.51;44.48
34081;BME280;20358;50.272;19.026;2022-08-25T14:11:32;98274.47;;;29.56;44.85
34081;BME280;20358;50.272;19.026;2022-08-25T14:14:41;98274.06;;;29.59;44.57
34081;BME280;20358;50.272;19.026;2022-08-25T14:18:01;98271.38;;;29.59;44.93
34081;BME280;20358;50.272;19.026;2022-08-25T14:21:10;98270.97;;;29.62;44.93
34081;BME280;20358;50.272;19.026;2022-08-25T14:24:17;98267.41;;;29.55;44.44
34081;BME280;20358;50.272;19.026;2022-08-25T14:27:27;98267.81;;;29.52;43.87
34081;BME280;20358;50.272;19.026;2022-08-25T14:30:47;98267.81;;;29.59;43.95
34081;BME280;20358;50.272;19.026;2022-08-25T14:33:57;98258.47;;;29.61;43.88
34081;BME280;20358;50.272;19.026;2022-08-25T14:37:05;98264.50;;;29.57;44.28
34081;BME280;20358;50.272;19.026;2022-08-25T14:40:18;98261.16;;;29.55;44.39
34081;BME280;20358;50.272;19.026;2022-08-25T14:43:27;98262.22;;;29.60;43.73
34081;BME280;20358;50.272;19.026;2022-08-25T14:46:40;98255.16;;;29.66;43.89
34081;BME280;20358;50.272;19.026;2022-08-25T14:49:48;98253.69;;;29.63;44.07
34081;BME280;20358;50.272;19.026;2022-08-25T14:52:55;98254.97;;;29.54;44.13
34081;BME280;20358;50.272;19.026;2022-08-25T14:56:03;98250.97;;;29.50;44.27
34081;BME280;20358;50.272;19.026;2022-08-25T14:59:15;98259.47;;;29.47;44.03
34081;BME280;20358;50.272;19.026;2022-08-25T15:02:22;98242.44;;;29.40;42.68
34081;BME280;20358;50.272;19.026;2022-08-25T15:05:32;98249.06;;;29.38;43.86
34081;BME280;20358;50.272;19.026;2022-08-25T15:08:39;98249.31;;;29.49;43.82
34081;BME280;20358;50.272;19.026;2022-08-25T15:12:02;98251.59;;;29.52;43.22
34081;BME280;20358;50.272;19.026;2022-08-25T15:15:13;98245.78;;;29.49;43.09
34081;BME280;20358;50.272;19.026;2022-08-25T15:18:21;98249.13;;;29.51;43.19
34081;BME280;20358;50.272;19.026;2022-08-25T15:21:27;98249.56;;;29.54;42.72
34081;BME280;20358;50.272;19.026;2022-08-25T15:24:34;98242.47;;;29.53;42.87
34081;BME280;20358;50.272;19.026;2022-08-25T15:27:41;98252.66;;;29.51;42.95
34081;BME280;20358;50.272;19.026;2022-08-25T15:30:51;98246.63;;;29.49;42.91
34081;BME280;20358;50.272;19.026;2022-08-25T15:33:57;98246.22;;;29.52;42.68
34081;BME280;20358;50.272;19.026;2022-08-25T15:37:07;98246.66;;;29.62;42.29
34081;BME280;20358;50.272;19.026;2022-08-25T15:40:14;98240.81;;;29.65;42.06
34081;BME280;20358;50.272;19.026;2022-08-25T15:43:21;98239.59;;;29.74;42.35
34081;BME280;20358;50.272;19.026;2022-08-25T15:46:30;98237.91;;;29.93;42.62
34081;BME280;20358;50.272;19.026;2022-08-25T15:49:38;98237.91;;;30.13;42.44
34081;BME280;20358;50.272;19.026;2022-08-25T15:52:45;98233.44;;;30.51;41.87
34081;BME280;20358;50.272;19.026;2022-08-25T15:55:52;98235.09;;;31.03;41.19
34081;BME280;20358;50.272;19.026;2022-08-25T15:59:05;98229.25;;;31.44;40.89
34081;BME280;20358;50.272;19.026;2022-08-25T16:02:15;98223.69;;;31.88;40.05
34081;BME280;20358;50.272;19.026;2022-08-25T16:05:21;98220.22;;;32.06;39.92
34081;BME280;20358;50.272;19.026;2022-08-25T16:08:29;98222.13;;;32.23;39.52
34081;BME280;20358;50.272;19.026;2022-08-25T16:11:37;98222.66;;;32.32;39.51
34081;BME280;20358;50.272;19.026;2022-08-25T16:14:46;98233.88;;;32.36;38.93
34081;BME280;20358;50.272;19.026;2022-08-25T16:17:57;98233.13;;;32.47;39.02
34081;BME280;20358;50.272;19.026;2022-08-25T16:21:08;98230.84;;;32.62;38.93
34081;BME280;20358;50.272;19.026;2022-08-25T16:24:15;98229.91;;;32.74;39.25
34081;BME280;20358;50.272;19.026;2022-08-25T16:27:23;98235.25;;;32.81;39.31
34081;BME280;20358;50.272;19.026;2022-08-25T16:30:44;98230.56;;;32.88;38.71
34081;BME280;20358;50.272;19.026;2022-08-25T16:33:58;98241.88;;;32.85;39.32
34081;BME280;20358;50.272;19.026;2022-08-25T16:37:04;98244.91;;;32.77;38.93
34081;BME280;20358;50.272;19.026;2022-08-25T16:40:12;98238.25;;;32.55;39.16
34081;BME280;20358;50.272;19.026;2022-08-25T16:43:21;98232.97;;;32.23;39.88
34081;BME280;20358;50.272;19.026;2022-08-25T16:46:29;98239.50;;;31.91;40.30